Time;durP1;ratioP1;P1;durP2;ratioP2;P2;SDS_P1;SDS_P2;PMS_P1;PMS_P2;Temp;Humidity;BMP_temperature;BMP_pressure;BME280_temperature;BME280_humidity;BME280_pressure;Samples;Min_cycle;Max_cycle;Signal;HPM_P1;HPM_P2
2022/07/19 00:00:15;;;;;;;;;7.00;6.00;;;;;30.25;26.01;101189.97;5097929;27;45319;-56
2022/07/19 00:02:41;;;;;;;;;7.60;7.60;;;;;30.20;26.18;101177.06;5098143;27;45352;-56
2022/07/19 00:05:09;;;;;;;;;11.75;7.50;;;;;30.22;26.10;101183.13;5097842;27;45412;-58
2022/07/19 00:07:35;;;;;;;;;6.20;6.00;;;;;30.20;26.77;101189.94;5098066;27;45466;-56
2022/07/19 00:10:02;;;;;;;;;7.60;7.20;;;;;30.17;26.47;101179.50;5097612;27;45958;-56
2022/07/19 00:12:27;;;;;;;;;8.60;5.60;;;;;30.14;26.83;101180.84;5097864;27;45406;-59
2022/07/19 00:14:52;;;;;;;;;8.50;6.50;;;;;30.14;26.63;101180.03;5097707;27;45445;-56
2022/07/19 00:17:18;;;;;;;;;8.75;8.25;;;;;30.10;26.67;101176.97;5098107;27;45446;-57
2022/07/19 00:19:43;;;;;;;;;8.50;6.00;;;;;30.07;27.09;101170.09;5097878;27;46933;-57
2022/07/19 00:22:09;;;;;;;;;7.25;7.00;;;;;30.07;26.59;101174.75;5097834;27;45520;-58
2022/07/19 00:24:34;;;;;;;;;5.00;5.00;;;;;30.04;27.08;101169.81;5097762;27;45331;-57
2022/07/19 00:26:59;;;;;;;;;7.75;7.75;;;;;30.02;27.16;101172.00;5097628;27;45508;-58
2022/07/19 00:29:25;;;;;;;;;6.75;6.25;;;;;29.94;27.11;101159.59;5097493;27;46099;-58
2022/07/19 00:31:50;;;;;;;;;7.25;7.25;;;;;29.99;27.09;101167.84;5099802;27;45351;-57
2022/07/19 00:34:15;;;;;;;;;7.25;5.25;;;;;29.96;26.60;101171.16;5101015;27;45414;-56
2022/07/19 00:36:41;;;;;;;;;10.25;6.75;;;;;29.92;26.81;101164.56;5101472;27;45446;-58
2022/07/19 00:39:07;;;;;;;;;7.50;6.75;;;;;29.91;26.76;101168.38;5101161;27;46165;-56
2022/07/19 00:41:32;;;;;;;;;8.50;7.00;;;;;29.91;26.26;101162.06;5101060;27;45557;-57
2022/07/19 00:43:57;;;;;;;;;6.50;6.50;;;;;29.78;27.06;101155.94;5101162;27;45432;-57
2022/07/19 00:46:23;;;;;;;;;6.50;6.50;;;;;29.83;26.42;101169.72;5101129;27;45399;-57
2022/07/19 00:48:49;;;;;;;;;6.25;6.25;;;;;29.80;26.79;101161.19;5100945;27;45386;-57
2022/07/19 00:51:16;;;;;;;;;8.20;6.40;;;;;29.78;27.33;101163.34;5100625;27;45418;-56
2022/07/19 00:53:42;;;;;;;;;6.80;5.00;;;;;29.77;26.67;101158.97;5100881;27;45465;-58
2022/07/19 00:56:09;;;;;;;;;9.40;7.00;;;;;29.77;26.46;101156.22;5101290;27;45297;-58
2022/07/19 00:58:36;;;;;;;;;7.20;6.00;;;;;29.75;27.39;101161.97;5100599;27;45389;-56
2022/07/19 01:01:04;;;;;;;;;7.60;6.40;;;;;29.73;26.47;101153.19;5100894;27;45171;-57
2022/07/19 01:03:30;;;;;;;;;7.80;7.00;;;;;29.70;26.91;101159.19;5100811;27;45461;-58
2022/07/19 01:05:56;;;;;;;;;7.25;6.50;;;;;29.65;27.22;101150.94;5100773;27;45494;-57
2022/07/19 01:08:21;;;;;;;;;7.25;6.00;;;;;29.64;27.75;101151.19;5100836;27;46009;-55
2022/07/19 01:10:47;;;;;;;;;6.00;6.00;;;;;29.55;26.88;101143.44;5100740;27;45481;-57
2022/07/19 01:13:13;;;;;;;;;9.00;6.25;;;;;29.56;27.16;101150.59;5100965;27;45304;-59
2022/07/19 01:15:41;;;;;;;;;7.60;5.60;;;;;29.55;27.26;101150.84;5100698;27;45188;-58
2022/07/19 01:18:06;;;;;;;;;7.40;6.20;;;;;29.47;27.03;101138.44;5100322;27;46109;-57
2022/07/19 01:20:32;;;;;;;;;7.25;6.00;;;;;29.46;27.40;101145.03;5100422;27;45323;-56
2022/07/19 01:22:57;;;;;;;;;6.25;4.75;;;;;29.42;27.22;101146.63;5100504;27;45410;-57
2022/07/19 01:25:24;;;;;;;;;8.00;7.25;;;;;29.39;27.25;101141.66;5100595;27;45403;-57
2022/07/19 01:27:50;;;;;;;;;5.80;5.80;;;;;29.33;27.52;101132.59;5100231;27;46234;-56
2022/07/19 01:30:21;;;;;;;;;6.50;6.50;;;;;29.35;27.22;101137.81;5100265;27;45455;-57
2022/07/19 01:32:48;;;;;;;;;5.00;5.00;;;;;29.30;27.62;101135.84;5100403;27;45306;-57
2022/07/19 01:35:14;;;;;;;;;8.00;6.60;;;;;29.31;27.95;101136.69;5100472;27;45313;-57
2022/07/19 01:37:40;;;;;;;;;8.40;6.40;;;;;29.33;28.36;101142.72;5099815;27;45702;-57
2022/07/19 01:40:09;;;;;;;;;5.20;5.20;;;;;29.31;27.75;101145.72;5100112;27;45464;-56
2022/07/19 01:42:35;;;;;;;;;4.20;4.20;;;;;29.30;27.73;101143.25;5099401;27;45237;-56
2022/07/19 01:45:00;;;;;;;;;7.50;5.75;;;;;29.27;27.40;101147.31;5100335;27;45450;-56
2022/07/19 01:47:26;;;;;;;;;4.00;3.75;;;;;29.26;27.88;101139.38;5100034;27;45202;-57
2022/07/19 01:49:51;;;;;;;;;5.50;5.25;;;;;29.23;27.49;101131.69;5099915;27;45382;-56
2022/07/19 01:52:17;;;;;;;;;9.00;6.00;;;;;29.20;28.06;101133.03;5099964;27;45531;-57
2022/07/19 01:54:42;;;;;;;;;5.75;4.25;;;;;29.16;27.85;101137.38;5100225;27;45466;-56
2022/07/19 01:57:08;;;;;;;;;5.75;4.25;;;;;29.12;27.57;101135.41;5099814;27;46027;-56
2022/07/19 01:59:36;;;;;;;;;5.50;4.00;;;;;29.09;27.80;101134.03;5099819;27;45277;-57
2022/07/19 02:02:02;;;;;;;;;5.40;4.60;;;;;29.06;28.12;101143.59;5099976;27;45390;-56
2022/07/19 02:04:27;;;;;;;;;4.80;4.60;;;;;29.03;27.63;101135.06;5100157;27;45307;-58
2022/07/19 02:06:53;;;;;;;;;7.00;4.00;;;;;29.00;27.81;101130.94;5099143;27;47075;-57
2022/07/19 02:09:18;;;;;;;;;5.00;5.00;;;;;28.84;27.60;101124.47;5099618;27;45289;-56
2022/07/19 02:11:43;;;;;;;;;7.00;6.00;;;;;28.95;28.33;101139.09;5099645;27;45347;-57
2022/07/19 02:14:09;;;;;;;;;7.00;5.75;;;;;28.91;28.22;101134.34;5099613;27;45422;-56
2022/07/19 02:16:36;;;;;;;;;6.25;6.25;;;;;28.87;28.01;101145.03;5099569;27;45392;-56
2022/07/19 02:19:02;;;;;;;;;7.40;5.80;;;;;28.84;28.50;101135.41;5099418;27;45237;-56
2022/07/19 02:21:27;;;;;;;;;6.00;5.25;;;;;28.81;28.64;101135.09;5099391;27;45272;-56
2022/07/19 02:23:52;;;;;;;;;5.00;5.00;;;;;28.77;28.40;101132.03;5098206;27;45555;-57
2022/07/19 02:26:18;;;;;;;;;8.25;6.25;;;;;28.74;28.67;101124.38;5099265;27;46295;-56
2022/07/19 02:28:43;;;;;;;;;7.25;5.50;;;;;28.68;28.31;101119.91;5099322;27;45317;-56
2022/07/19 02:31:09;;;;;;;;;6.00;6.00;;;;;28.51;28.76;101091.81;5099473;27;45441;-56
2022/07/19 02:33:34;;;;;;;;;9.25;6.00;;;;;28.62;29.05;101114.66;5099347;27;45293;-58
2022/07/19 02:36:00;;;;;;;;;6.25;6.25;;;;;28.51;28.99;101103.59;5099228;27;45945;-57
2022/07/19 02:38:25;;;;;;;;;6.50;4.75;;;;;28.57;29.16;101112.69;5099035;27;45302;-57
2022/07/19 02:40:51;;;;;;;;;6.75;6.75;;;;;28.54;28.95;101114.03;5099272;27;45276;-56
2022/07/19 02:43:16;;;;;;;;;9.25;6.75;;;;;28.50;29.04;101110.16;5099360;27;45358;-56
2022/07/19 02:45:41;;;;;;;;;6.50;6.50;;;;;28.47;29.39;101112.56;5097636;27;48273;-56
2022/07/19 02:48:09;;;;;;;;;9.00;5.00;;;;;28.44;29.40;101108.44;5099011;27;45748;-57
2022/07/19 02:50:34;;;;;;;;;7.80;4.40;;;;;28.39;28.65;101111.09;5099127;27;45343;-58
2022/07/19 02:53:00;;;;;;;;;6.50;6.50;;;;;28.37;29.53;101113.28;5099179;27;45466;-57
2022/07/19 02:55:26;;;;;;;;;11.00;6.00;;;;;28.33;29.34;101104.72;5098727;27;47155;-56
2022/07/19 02:57:51;;;;;;;;;7.00;5.50;;;;;28.30;29.59;101107.97;5098844;27;45201;-56
2022/07/19 03:00:16;;;;;;;;;3.75;3.00;;;;;28.17;29.54;101091.13;5099163;27;45793;-56
2022/07/19 03:02:42;;;;;;;;;9.75;5.00;;;;;28.23;29.45;101101.88;5097927;27;45317;-56
2022/07/19 03:05:08;;;;;;;;;7.00;5.50;;;;;28.23;29.00;101104.63;5098924;27;45616;-57
2022/07/19 03:07:33;;;;;;;;;9.25;6.00;;;;;28.15;29.25;101094.13;5098493;27;45474;-56
2022/07/19 03:09:58;;;;;;;;;9.25;6.50;;;;;28.13;29.42;101098.19;5098560;27;45300;-57
2022/07/19 03:12:24;;;;;;;;;6.75;6.00;;;;;28.10;29.39;101096.78;5098943;27;45396;-57
2022/07/19 03:14:49;;;;;;;;;5.00;5.00;;;;;28.06;29.15;101098.38;5098527;27;46199;-56
2022/07/19 03:17:15;;;;;;;;;8.00;6.00;;;;;28.04;29.11;101095.06;5098644;27;45387;-55
2022/07/19 03:19:40;;;;;;;;;9.50;5.75;;;;;27.96;29.72;101095.53;5098696;27;45409;-56
2022/07/19 03:22:05;;;;;;;;;8.75;7.00;;;;;27.97;29.53;101100.72;5098702;27;45321;-57
2022/07/19 03:24:31;;;;;;;;;8.00;6.00;;;;;27.95;29.74;101097.44;5098276;27;46092;-56
2022/07/19 03:26:56;;;;;;;;;7.00;7.00;;;;;27.94;29.89;101100.41;5098273;27;45529;-57
2022/07/19 03:29:22;;;;;;;;;6.00;4.50;;;;;27.91;29.82;101100.94;5097313;27;45433;-56
2022/07/19 03:31:47;;;;;;;;;7.75;7.00;;;;;27.90;29.56;101093.81;5097243;27;45590;-58
2022/07/19 03:34:13;;;;;;;;;6.25;6.00;;;;;27.87;29.66;101100.59;5098144;27;45377;-56
2022/07/19 03:36:38;;;;;;;;;5.75;4.75;;;;;27.88;29.89;101098.69;5097035;27;46120;-55
2022/07/19 03:39:03;;;;;;;;;9.50;7.00;;;;;27.78;29.86;101094.75;5098197;27;45219;-55
2022/07/19 03:41:29;;;;;;;;;9.75;6.50;;;;;27.81;30.19;101101.59;5098605;27;45203;-55
2022/07/19 03:43:54;;;;;;;;;8.50;8.50;;;;;27.84;30.17;101107.38;5097906;27;46250;-57
2022/07/19 03:46:20;;;;;;;;;11.00;7.75;;;;;27.81;30.18;101107.06;5098057;27;45277;-60
2022/07/19 03:48:46;;;;;;;;;13.25;9.25;;;;;27.80;30.10;101099.94;5098173;27;45412;-59
2022/07/19 03:51:12;;;;;;;;;10.60;8.00;;;;;27.64;30.38;101071.53;5098302;27;45340;-56
2022/07/19 03:53:38;;;;;;;;;11.40;9.20;;;;;27.74;30.39;101096.34;5097908;27;45389;-57
2022/07/19 03:56:04;;;;;;;;;13.75;10.50;;;;;27.76;30.20;101104.28;5097766;27;45498;-58
2022/07/19 03:58:29;;;;;;;;;10.50;9.50;;;;;27.73;30.20;101102.06;5097953;27;45315;-58
2022/07/19 04:00:55;;;;;;;;;11.50;10.00;;;;;27.69;30.08;101101.69;5098104;27;45395;-56
2022/07/19 04:03:20;;;;;;;;;15.75;10.75;;;;;27.68;30.48;101104.66;5097670;27;46110;-57
2022/07/19 04:05:46;;;;;;;;;18.00;15.75;;;;;27.61;30.43;101093.94;5097076;27;45373;-57
2022/07/19 04:08:11;;;;;;;;;17.00;15.00;;;;;27.60;30.26;101097.72;5097708;27;45302;-56
2022/07/19 04:10:36;;;;;;;;;17.50;16.00;;;;;27.59;30.43;101107.81;5097870;27;45344;-58
2022/07/19 04:13:02;;;;;;;;;20.25;14.75;;;;;27.59;30.45;101102.38;5097594;27;45899;-58
2022/07/19 04:15:27;;;;;;;;;20.50;18.00;;;;;27.54;30.64;101105.03;5097545;27;45299;-56
2022/07/19 04:17:53;;;;;;;;;18.75;16.75;;;;;27.54;30.50;101096.81;5098009;27;45397;-57
2022/07/19 04:20:18;;;;;;;;;25.50;18.50;;;;;27.55;30.79;101105.84;5097747;27;45369;-56
2022/07/19 04:22:43;;;;;;;;;20.00;15.50;;;;;27.52;30.51;101090.81;5097142;27;47106;-57
2022/07/19 04:25:09;;;;;;;;;15.25;13.25;;;;;27.51;30.11;101091.84;5097493;27;45252;-57
2022/07/19 04:27:35;;;;;;;;;17.75;14.25;;;;;27.51;30.68;101091.84;5097597;27;45432;-57
2022/07/19 04:30:01;;;;;;;;;18.25;15.25;;;;;27.50;30.23;101101.13;5097723;27;45379;-58
2022/07/19 04:32:28;;;;;;;;;14.80;13.20;;;;;27.40;30.62;101081.88;5097216;27;46155;-57
2022/07/19 04:34:54;;;;;;;;;11.60;10.40;;;;;27.49;30.39;101101.41;5097092;27;45347;-58
2022/07/19 04:37:19;;;;;;;;;14.50;14.00;;;;;27.40;30.70;101090.06;5097457;27;45436;-55
2022/07/19 04:39:44;;;;;;;;;11.25;11.00;;;;;27.48;30.80;101094.28;5097401;27;45587;-56
2022/07/19 04:42:10;;;;;;;;;18.25;11.00;;;;;27.46;30.52;101094.53;5097166;27;46204;-56
2022/07/19 04:44:35;;;;;;;;;22.25;15.00;;;;;27.45;30.96;101095.59;5097123;27;45318;-55
2022/07/19 04:47:01;;;;;;;;;16.00;13.00;;;;;27.42;30.54;101076.97;5097088;27;45441;-56
2022/07/19 04:49:26;;;;;;;;;13.75;11.50;;;;;27.43;30.31;101092.31;5097527;27;45358;-56
2022/07/19 04:51:51;;;;;;;;;15.25;13.00;;;;;27.41;30.88;101082.69;5097043;27;47145;-57
2022/07/19 04:54:17;;;;;;;;;13.00;10.75;;;;;27.40;30.76;101076.41;5097138;27;45345;-56
2022/07/19 04:56:42;;;;;;;;;20.50;15.00;;;;;27.34;30.69;101061.00;5097308;27;45997;-58
2022/07/19 04:59:08;;;;;;;;;16.25;15.00;;;;;27.44;30.42;101080.28;5097393;27;45461;-56
2022/07/19 05:01:34;;;;;;;;;14.50;12.50;;;;;27.45;30.59;101081.94;5096909;27;46203;-58
2022/07/19 05:04:00;;;;;;;;;17.00;14.00;;;;;27.44;30.98;101076.75;5096983;27;45248;-57
2022/07/19 05:06:25;;;;;;;;;16.50;14.00;;;;;27.46;30.91;101080.03;5096920;27;45267;-58
2022/07/19 05:08:52;;;;;;;;;16.00;14.25;;;;;27.46;30.80;101080.03;5097100;27;45511;-57
2022/07/19 05:11:18;;;;;;;;;14.20;12.40;;;;;27.38;31.07;101064.88;5096805;27;46197;-57
2022/07/19 05:13:43;;;;;;;;;13.25;11.75;;;;;27.45;31.30;101078.38;5096808;27;45377;-55
2022/07/19 05:16:09;;;;;;;;;13.50;9.50;;;;;27.46;31.23;101078.13;5097076;27;45260;-58
2022/07/19 05:18:34;;;;;;;;;9.75;8.00;;;;;27.46;31.46;101075.38;5098812;27;45343;-56
2022/07/19 05:21:00;;;;;;;;;11.00;11.00;;;;;27.48;31.56;101081.44;5100417;27;46143;-56
2022/07/19 05:23:25;;;;;;;;;14.00;10.50;;;;;27.37;31.52;101055.03;5100234;27;45350;-56
2022/07/19 05:25:50;;;;;;;;;15.75;12.75;;;;;27.50;31.16;101075.72;5100341;27;45294;-58
2022/07/19 05:28:16;;;;;;;;;10.75;9.75;;;;;27.55;31.19;101079.34;5100712;27;45477;-58
2022/07/19 05:30:43;;;;;;;;;9.00;9.00;;;;;27.58;31.02;101072.56;5100114;27;46387;-56
2022/07/19 05:33:09;;;;;;;;;12.80;12.00;;;;;27.65;31.60;101077.88;5100001;27;45283;-58
2022/07/19 05:35:34;;;;;;;;;14.75;11.75;;;;;27.69;31.19;101068.06;5100556;27;45360;-58
2022/07/19 05:37:59;;;;;;;;;17.50;12.00;;;;;27.75;31.22;101078.03;5100755;27;45677;-58
2022/07/19 05:40:25;;;;;;;;;13.00;11.00;;;;;27.80;30.64;101067.97;5099984;27;46564;-58
2022/07/19 05:42:50;;;;;;;;;13.00;11.00;;;;;27.83;30.83;101075.66;5100580;27;45212;-58
2022/07/19 05:45:15;;;;;;;;;13.00;9.00;;;;;27.89;30.66;101076.56;5100339;27;45213;-58
2022/07/19 05:47:41;;;;;;;;;13.00;10.00;;;;;27.94;30.51;101078.53;5100468;27;45239;-57
2022/07/19 05:50:06;;;;;;;;;12.75;8.75;;;;;27.94;30.34;101075.78;5098640;27;46271;-58
2022/07/19 05:52:32;;;;;;;;;12.00;9.50;;;;;28.01;30.45;101070.97;5099882;27;45384;-58
2022/07/19 05:54:57;;;;;;;;;11.00;8.50;;;;;28.06;30.52;101071.88;5100295;27;45341;-57
2022/07/19 05:57:22;;;;;;;;;11.00;10.00;;;;;28.09;30.01;101062.31;5098895;27;45197;-58
2022/07/19 05:59:48;;;;;;;;;11.00;10.00;;;;;28.15;30.32;101069.50;5099970;27;45957;-56
2022/07/19 06:02:14;;;;;;;;;14.00;9.00;;;;;28.19;30.07;101067.91;5100167;27;46167;-59
2022/07/19 06:04:40;;;;;;;;;9.00;9.00;;;;;28.14;30.08;101056.91;5100017;27;45407;-61
2022/07/19 06:07:05;;;;;;;;;9.50;8.75;;;;;28.19;29.85;101065.19;5100256;27;45378;-59
2022/07/19 06:09:31;;;;;;;;;10.25;9.00;;;;;28.27;29.90;101067.44;5099448;27;46333;-59
2022/07/19 06:11:56;;;;;;;;;9.75;9.00;;;;;28.36;29.90;101062.41;5099957;27;45405;-59
2022/07/19 06:14:21;;;;;;;;;9.00;9.00;;;;;28.43;29.78;101059.44;5099936;27;45307;-58
2022/07/19 06:16:47;;;;;;;;;9.00;9.00;;;;;28.50;30.20;101058.16;5099872;27;45396;-60
2022/07/19 06:19:12;;;;;;;;;12.75;11.00;;;;;28.58;29.85;101060.44;5099674;27;46097;-58
2022/07/19 06:21:38;;;;;;;;;9.50;8.75;;;;;28.65;29.61;101054.72;5099574;27;45385;-59
2022/07/19 06:24:04;;;;;;;;;14.75;10.75;;;;;28.71;29.90;101047.41;5099633;27;45297;-58
2022/07/19 06:26:29;;;;;;;;;10.00;9.00;;;;;28.78;29.83;101046.09;5099918;27;45182;-58
2022/07/19 06:28:55;;;;;;;;;10.75;9.75;;;;;28.86;29.70;101050.25;5099096;27;45285;-58
2022/07/19 06:31:22;;;;;;;;;12.50;11.75;;;;;28.90;29.74;101051.38;5099575;27;45292;-60
2022/07/19 06:33:49;;;;;;;;;9.40;9.40;;;;;28.97;29.61;101043.81;5099277;27;45431;-61
2022/07/19 06:36:15;;;;;;;;;8.60;8.20;;;;;29.09;29.13;101040.91;5099755;27;45336;-60
2022/07/19 06:38:42;;;;;;;;;11.40;11.20;;;;;29.17;29.48;101043.16;5099357;27;45378;-52
2022/07/19 06:41:07;;;;;;;;;10.80;8.60;;;;;29.21;29.01;101014.13;5099159;27;45481;-58
2022/07/19 06:43:33;;;;;;;;;12.25;10.75;;;;;29.46;28.99;101037.31;5099667;27;45383;-56
2022/07/19 06:45:58;;;;;;;;;11.75;10.00;;;;;29.60;28.84;101032.19;5099536;27;45415;-53
2022/07/19 06:48:24;;;;;;;;;13.50;8.75;;;;;29.77;29.11;101024.59;5099053;27;46148;-56
2022/07/19 06:50:49;;;;;;;;;13.00;9.00;;;;;29.86;28.25;101009.25;5099252;27;45344;-56
2022/07/19 06:53:14;;;;;;;;;13.00;9.00;;;;;30.14;27.80;101012.66;5099751;27;45288;-58
2022/07/19 06:55:40;;;;;;;;;11.25;9.00;;;;;30.44;27.92;101015.47;5099931;27;45227;-55
2022/07/19 06:58:05;;;;;;;;;10.25;9.00;;;;;30.79;27.18;101014.69;5098233;27;47047;-56
2022/07/19 07:00:31;;;;;;;;;10.25;9.25;;;;;31.22;27.09;101012.44;5097446;27;45422;-52
2022/07/19 07:02:56;;;;;;;;;10.25;9.00;;;;;31.73;26.60;101014.22;5097629;27;45460;-58
2022/07/19 07:05:21;;;;;;;;;9.75;9.00;;;;;32.20;25.88;101013.75;5098907;27;45386;-58
2022/07/19 07:07:48;;;;;;;;;12.50;9.25;;;;;32.68;25.70;101013.16;5098679;27;45831;-57
2022/07/19 07:10:14;;;;;;;;;10.00;10.00;;;;;33.17;25.03;101001.16;5098401;27;45421;-55
2022/07/19 07:12:40;;;;;;;;;10.25;9.25;;;;;33.74;23.97;101002.16;5098327;27;45557;-58
2022/07/19 07:15:07;;;;;;;;;10.75;9.00;;;;;34.24;23.75;100997.06;5098894;27;45318;-57
2022/07/19 07:17:33;;;;;;;;;9.00;9.00;;;;;34.87;25.04;101007.66;5098327;27;47047;-58
2022/07/19 07:19:59;;;;;;;;;13.40;9.80;;;;;35.41;22.95;101002.53;5097096;27;45399;-57
2022/07/19 07:22:24;;;;;;;;;11.25;10.75;;;;;35.78;21.79;100959.16;5098492;27;45181;-56
2022/07/19 07:24:49;;;;;;;;;14.00;9.50;;;;;36.71;21.16;101004.63;5098450;27;45457;-56
2022/07/19 07:27:15;;;;;;;;;11.75;9.75;;;;;37.43;20.76;101009.13;5098235;27;46369;-56
2022/07/19 07:29:40;;;;;;;;;9.25;9.25;;;;;38.54;19.41;101000.44;5098346;27;45624;-54
2022/07/19 07:32:06;;;;;;;;;14.25;11.00;;;;;40.48;17.66;101000.78;5098628;27;45343;-56
2022/07/19 07:34:31;;;;;;;;;9.00;7.25;;;;;42.24;16.83;100994.25;5098286;27;45417;-56
2022/07/19 07:36:56;;;;;;;;;12.75;10.00;;;;;43.59;15.20;100983.81;5098200;27;45422;-56
2022/07/19 07:39:23;;;;;;;;;11.25;10.75;;;;;44.65;14.04;100986.44;5097063;27;45378;-57
2022/07/19 07:41:49;;;;;;;;;12.00;9.00;;;;;45.42;13.71;100979.72;5097183;27;45219;-56
2022/07/19 07:44:14;;;;;;;;;14.00;10.75;;;;;46.30;12.35;100981.31;5098649;27;45324;-57
2022/07/19 07:46:40;;;;;;;;;8.75;8.75;;;;;46.94;14.61;100986.81;5097717;27;46882;-56
2022/07/19 07:49:06;;;;;;;;;8.60;8.20;;;;;47.47;12.38;100978.78;5097872;27;45457;-56
2022/07/19 07:51:31;;;;;;;;;12.75;11.00;;;;;48.23;11.83;100986.41;5098012;27;45392;-56
2022/07/19 07:53:59;;;;;;;;;11.75;10.75;;;;;49.10;11.09;100988.16;5098179;27;45327;-56
2022/07/19 07:56:24;;;;;;;;;12.20;9.80;;;;;49.88;11.83;100977.91;5097675;27;45366;-55
2022/07/19 07:58:50;;;;;;;;;14.00;11.00;;;;;50.41;10.61;100979.69;5097772;27;45365;-55
2022/07/19 08:01:16;;;;;;;;;10.25;10.25;;;;;50.71;10.72;100972.59;5097798;27;45319;-55
2022/07/19 08:03:41;;;;;;;;;11.25;8.25;;;;;51.07;10.07;100973.09;5098287;27;45256;-56
2022/07/19 08:06:06;;;;;;;;;9.00;9.00;;;;;51.34;11.62;100973.25;5097538;27;46026;-56
2022/07/19 08:08:32;;;;;;;;;11.25;8.75;;;;;51.51;10.33;100963.75;5097819;27;45446;-57
2022/07/19 08:10:58;;;;;;;;;10.75;8.75;;;;;51.82;9.19;100958.91;5097507;27;45158;-58
2022/07/19 08:13:23;;;;;;;;;9.50;8.50;;;;;52.51;9.36;100956.75;5097834;27;45368;-58
2022/07/19 08:15:50;;;;;;;;;11.25;9.75;;;;;53.28;8.30;100961.53;5097453;27;47016;-56
2022/07/19 08:18:16;;;;;;;;;12.00;10.20;;;;;53.49;8.91;100960.28;5097451;27;45492;-56
2022/07/19 08:20:42;;;;;;;;;9.80;8.40;;;;;53.57;8.99;100943.91;5097549;27;45321;-55
2022/07/19 08:23:07;;;;;;;;;9.00;8.25;;;;;54.03;7.83;100950.66;5097827;27;45504;-54
2022/07/19 08:25:34;;;;;;;;;11.00;9.50;;;;;54.12;7.72;100952.88;5112796;27;47451;-57
2022/07/19 08:28:00;;;;;;;;;12.20;10.00;;;;;53.98;9.57;100949.09;5097513;27;45216;-58
2022/07/19 08:30:25;;;;;;;;;9.00;7.80;;;;;54.31;8.36;100949.97;5097527;27;45330;-59
2022/07/19 08:32:51;;;;;;;;;10.00;9.25;;;;;54.43;7.67;100942.78;5097621;27;45263;-57
2022/07/19 08:35:16;;;;;;;;;5.00;4.75;;;;;54.63;8.05;100944.75;5097284;27;45537;-56
2022/07/19 08:37:42;;;;;;;;;10.00;8.25;;;;;54.60;8.40;100945.66;5097245;27;45400;-57
2022/07/19 08:40:07;;;;;;;;;9.75;8.75;;;;;54.80;8.55;100943.47;5097690;27;45445;-56
2022/07/19 08:42:34;;;;;;;;;14.20;10.00;;;;;55.16;7.53;100937.63;5096089;27;45514;-55
2022/07/19 08:45:02;;;;;;;;;12.20;8.20;;;;;55.71;7.60;100946.25;5097378;27;47394;-56
2022/07/19 08:47:29;;;;;;;;;9.20;9.20;;;;;55.64;7.82;100946.47;5095696;27;45357;-58
2022/07/19 08:49:56;;;;;;;;;10.60;10.60;;;;;55.96;8.14;100937.72;5097070;27;45278;-57
2022/07/19 08:52:22;;;;;;;;;11.20;11.20;;;;;56.20;6.80;100929.66;5098891;27;45437;-54
2022/07/19 08:54:48;;;;;;;;;7.20;6.00;;;;;56.46;7.00;100923.91;5100502;27;47168;-54
2022/07/19 08:59:57;;;;;;;;;10.40;9.40;;;;;56.58;6.50;100928.00;5100742;27;45763;-55
2022/07/19 09:02:23;;;;;;;;;10.50;8.50;;;;;56.81;6.07;100924.78;5100705;27;45581;-57
2022/07/19 09:05:07;;;;;;;;;9.00;9.00;;;;;57.13;6.64;100914.22;5100513;27;45462;-58
2022/07/19 09:07:35;;;;;;;;;8.80;8.80;;;;;57.38;6.13;100919.03;5100353;27;45350;-55
2022/07/19 09:10:21;;;;;;;;;10.40;8.60;;;;;57.69;5.53;100921.91;5100920;27;45320;-56
2022/07/19 09:13:10;;;;;;;;;7.80;7.80;;;;;58.04;6.53;100918.94;5100644;27;45541;-53
2022/07/19 09:15:54;;;;;;;;;7.40;7.00;;;;;58.22;5.92;100911.16;5100359;27;45293;-55
2022/07/19 09:18:30;;;;;;;;;6.60;5.00;;;;;58.30;5.53;100911.69;5100522;27;45325;-56
2022/07/19 09:21:01;;;;;;;;;11.60;8.20;;;;;58.58;5.92;100903.13;5099007;27;45313;-56
2022/07/19 09:23:27;;;;;;;;;10.40;8.40;;;;;58.55;5.19;100898.38;5100556;27;45438;-57
2022/07/19 09:25:58;;;;;;;;;6.60;6.60;;;;;58.77;4.74;100901.09;5100037;27;45696;-55
2022/07/19 09:28:27;;;;;;;;;11.60;8.80;;;;;58.74;5.06;100896.31;5100066;27;45274;-57
2022/07/19 09:30:57;;;;;;;;;8.60;7.20;;;;;58.89;5.72;100889.47;5100340;27;45560;-57
2022/07/19 09:33:28;;;;;;;;;8.40;8.00;;;;;58.54;5.40;100894.72;5100327;27;45410;-55
2022/07/19 09:36:13;;;;;;;;;10.20;9.80;;;;;58.38;6.20;100895.78;5099955;27;45981;-56
2022/07/19 09:38:43;;;;;;;;;9.40;8.40;;;;;58.29;5.29;100884.31;5099938;27;45233;-56
2022/07/19 09:41:11;;;;;;;;;8.60;8.60;;;;;58.20;5.21;100882.22;5099905;27;45394;-54
2022/07/19 09:43:56;;;;;;;;;3.80;3.80;;;;;57.85;5.48;100880.81;5100335;27;45537;-56
2022/07/19 09:46:38;;;;;;;;;6.80;6.80;;;;;57.83;5.17;100877.63;5098593;27;46092;-55
2022/07/19 09:49:06;;;;;;;;;7.00;6.60;;;;;57.73;5.04;100874.72;5099944;27;45394;-55
2022/07/19 09:51:34;;;;;;;;;7.80;5.80;;;;;57.73;5.86;100871.06;5099942;27;45414;-55
2022/07/19 09:54:01;;;;;;;;;7.80;7.20;;;;;57.51;5.23;100867.44;5100286;27;45474;-53
2022/07/19 09:56:29;;;;;;;;;8.80;8.80;;;;;57.77;5.77;100865.97;5099627;27;46045;-52
2022/07/19 09:58:56;;;;;;;;;9.80;8.00;;;;;57.73;4.77;100856.75;5099749;27;45543;-53
2022/07/19 10:01:22;;;;;;;;;8.00;7.40;;;;;57.77;5.39;100845.94;5099955;27;45310;-55
2022/07/19 10:03:50;;;;;;;;;6.20;6.20;;;;;58.25;5.93;100855.03;5099475;27;45442;-57
2022/07/19 10:06:17;;;;;;;;;8.00;7.60;;;;;58.46;4.92;100851.22;5099293;27;47022;-55
2022/07/19 10:08:42;;;;;;;;;10.60;8.60;;;;;58.80;4.95;100851.41;5099638;27;45402;-54
2022/07/19 10:11:08;;;;;;;;;11.25;9.75;;;;;58.53;4.50;100834.97;5099632;27;45306;-57
2022/07/19 10:13:33;;;;;;;;;7.75;7.75;;;;;58.07;5.32;100841.44;5099641;27;45298;-57
2022/07/19 10:16:03;;;;;;;;;6.25;6.25;;;;;57.78;5.35;100838.97;5099232;27;45269;-55
2022/07/19 10:18:36;;;;;;;;;12.00;9.20;;;;;57.90;5.35;100825.78;5099097;27;45553;-55
2022/07/19 10:21:02;;;;;;;;;12.40;8.00;;;;;58.22;4.78;100835.91;5099680;27;45421;-55
2022/07/19 10:23:29;;;;;;;;;12.75;9.00;;;;;58.07;4.61;100823.47;5099552;27;45393;-56
2022/07/19 10:25:55;;;;;;;;;10.60;8.40;;;;;58.08;5.16;100816.47;5097831;27;46220;-57
2022/07/19 10:28:35;;;;;;;;;7.60;7.60;;;;;57.93;4.86;100808.50;5099303;27;45370;-56
2022/07/19 10:31:01;;;;;;;;;9.40;8.40;;;;;57.48;4.24;100817.66;5099264;27;45417;-56
2022/07/19 10:33:33;;;;;;;;;9.00;8.50;;;;;57.22;4.42;100794.97;5099095;27;45441;-56
2022/07/19 10:36:31;;;;;;;;;9.40;8.40;;;;;57.26;4.37;100797.69;5099008;27;46370;-54
2022/07/19 10:39:18;;;;;;;;;8.80;6.20;;;;;57.22;4.37;100789.25;5098967;27;45385;-56
2022/07/19 10:42:08;;;;;;;;;8.20;6.00;;;;;56.84;4.16;100788.69;5099163;27;45369;-54
2022/07/19 10:44:35;;;;;;;;;10.20;8.80;;;;;56.30;5.08;100764.88;5099227;27;45321;-55
2022/07/19 10:47:00;;;;;;;;;7.40;7.40;;;;;56.20;4.80;100783.22;5098732;27;46741;-55
2022/07/19 10:49:46;;;;;;;;;8.25;7.25;;;;;56.44;5.27;100784.41;5098885;27;45334;-56
2022/07/19 10:52:29;;;;;;;;;5.00;5.00;;;;;56.01;4.83;100779.38;5099052;27;45443;-58
2022/07/19 10:55:29;;;;;;;;;8.00;7.40;;;;;55.67;5.50;100771.50;5099167;27;45372;-54
2022/07/19 10:58:06;;;;;;;;;5.00;4.60;;;;;55.24;5.58;100770.00;5098779;27;45309;-53
2022/07/19 11:00:44;;;;;;;;;5.80;4.40;;;;;55.02;5.23;100767.78;5098571;27;45217;-56
2022/07/19 11:03:21;;;;;;;;;7.40;7.40;;;;;53.90;5.32;100762.69;5098722;27;45438;-55
2022/07/19 11:05:58;;;;;;;;;6.00;6.00;;;;;53.06;5.62;100758.53;5099071;27;45370;-55
2022/07/19 11:08:34;;;;;;;;;6.80;6.20;;;;;51.56;6.08;100755.50;5098669;27;46937;-54
2022/07/19 11:11:10;;;;;;;;;6.80;6.20;;;;;49.86;7.39;100759.75;5098490;27;45443;-58
2022/07/19 11:13:37;;;;;;;;;10.00;8.40;;;;;48.63;7.41;100750.19;5098262;27;45371;-57
2022/07/19 11:16:03;;;;;;;;;10.60;8.20;;;;;47.61;8.02;100743.28;5097651;27;45518;-56
2022/07/19 11:18:33;;;;;;;;;9.50;9.50;;;;;46.47;8.17;100737.91;5098644;27;46482;-56
2022/07/19 11:21:03;;;;;;;;;11.80;8.60;;;;;45.54;8.80;100759.53;5098287;27;45286;-53
2022/07/19 11:23:31;;;;;;;;;9.20;8.20;;;;;44.65;9.51;100738.72;5098693;27;45363;-55